Time;durP1;ratioP1;P1;durP2;ratioP2;P2;SDS_P1;SDS_P2;PMS_P1;PMS_P2;Temp;Humidity;BMP_temperature;BMP_pressure;BME280_temperature;BME280_humidity;BME280_pressure;Samples;Min_cycle;Max_cycle;Signal;HPM_P1;HPM_P2
2022/03/10 00:00:56;;;;;;;4.68;2.88;;;21.60;41.20;;;;;;5002285;28;20351;-71
2022/03/10 00:03:22;;;;;;;4.32;2.72;;;21.60;41.20;;;;;;5001945;28;20037;-68
2022/03/10 00:05:47;;;;;;;4.88;3.33;;;21.50;41.20;;;;;;5001502;28;20053;-70
2022/03/10 00:08:13;;;;;;;3.85;2.80;;;21.60;41.30;;;;;;5003996;28;20026;-68
2022/03/10 00:10:39;;;;;;;4.18;2.78;;;21.60;41.30;;;;;;5002289;28;20486;-68
2022/03/10 00:13:05;;;;;;;3.80;2.70;;;21.50;41.20;;;;;;5006066;28;20549;-66
2022/03/10 00:15:30;;;;;;;4.28;3.05;;;21.50;41.30;;;;;;5003966;28;20080;-69
2022/03/10 00:17:56;;;;;;;4.85;3.00;;;21.50;41.30;;;;;;5005567;28;20053;-69
2022/03/10 00:20:22;;;;;;;4.15;2.70;;;21.50;41.30;;;;;;5004136;28;20134;-69
2022/03/10 00:22:51;;;;;;;3.90;2.78;;;21.50;41.30;;;;;;5006573;28;20693;-69
2022/03/10 00:25:18;;;;;;;4.45;2.95;;;21.50;41.30;;;;;;5005222;28;20034;-66
2022/03/10 00:27:45;;;;;;;3.78;2.65;;;21.50;41.30;;;;;;5000051;28;20052;-69
2022/03/10 00:30:11;;;;;;;5.03;2.75;;;21.50;41.30;;;;;;4995541;28;20133;-69
2022/03/10 00:32:42;;;;;;;4.15;2.67;;;21.40;41.30;;;;;;5006437;28;20018;-68
2022/03/10 00:35:08;;;;;;;3.97;2.60;;;21.40;41.30;;;;;;5005660;28;20072;-68
2022/03/10 00:37:36;;;;;;;5.07;3.17;;;21.40;41.30;;;;;;5008451;28;20041;-67
2022/03/10 00:40:03;;;;;;;3.65;2.70;;;21.40;41.30;;;;;;5003867;28;20041;-68
2022/03/10 00:42:35;;;;;;;4.22;2.75;;;21.40;41.30;;;;;;5004926;28;20037;-69
2022/03/10 00:45:00;;;;;;;4.68;2.95;;;21.40;41.30;;;;;;5004771;28;20030;-67
2022/03/10 00:47:26;;;;;;;5.75;2.70;;;21.40;41.30;;;;;;5004256;28;20528;-67
2022/03/10 00:49:51;;;;;;;3.67;2.45;;;21.40;41.30;;;;;;5005749;28;20033;-64
2022/03/10 00:52:17;;;;;;;4.13;2.80;;;21.40;41.30;;;;;;5004205;28;20029;-64
2022/03/10 00:54:43;;;;;;;3.33;2.30;;;21.40;41.30;;;;;;5004599;28;20037;-67
2022/03/10 00:57:08;;;;;;;4.45;2.70;;;21.40;41.30;;;;;;5003953;28;20026;-65
2022/03/10 00:59:34;;;;;;;4.07;2.33;;;21.30;41.30;;;;;;5004794;28;20034;-69
2022/03/10 01:01:59;;;;;;;4.35;2.70;;;21.40;41.40;;;;;;5004328;28;20118;-67
2022/03/10 01:04:25;;;;;;;4.20;2.53;;;21.30;41.30;;;;;;5007369;28;20038;-69
2022/03/10 01:06:50;;;;;;;3.72;2.38;;;21.30;41.30;;;;;;5005766;28;20036;-69
2022/03/10 01:09:16;;;;;;;4.13;2.58;;;21.30;41.30;;;;;;5004565;28;20494;-67
2022/03/10 01:11:42;;;;;;;3.63;2.45;;;21.30;41.30;;;;;;5002496;28;20125;-66
2022/03/10 01:14:07;;;;;;;4.95;2.60;;;21.30;41.40;;;;;;5021905;28;20042;-67
2022/03/10 01:16:33;;;;;;;3.60;2.35;;;21.30;41.40;;;;;;5006065;28;20053;-65
2022/03/10 01:18:58;;;;;;;4.05;2.50;;;21.30;41.40;;;;;;5005539;28;20072;-67
2022/03/10 01:21:24;;;;;;;3.33;2.30;;;21.30;41.40;;;;;;5004785;28;20061;-67
2022/03/10 01:23:50;;;;;;;3.88;2.60;;;21.30;41.40;;;;;;5004641;28;20080;-67
2022/03/10 01:26:15;;;;;;;4.22;2.45;;;21.30;41.40;;;;;;5005102;28;20331;-69
2022/03/10 01:28:41;;;;;;;4.13;2.50;;;21.30;41.40;;;;;;5006645;28;20029;-64
2022/03/10 01:31:06;;;;;;;3.50;2.38;;;21.20;41.40;;;;;;5004813;28;20034;-65
2022/03/10 01:33:33;;;;;;;3.63;2.20;;;21.20;41.40;;;;;;5002566;28;20041;-69
2022/03/10 01:35:58;;;;;;;3.15;2.13;;;21.20;41.40;;;;;;5003807;28;20036;-64
2022/03/10 01:38:24;;;;;;;3.92;2.58;;;21.20;41.40;;;;;;5005401;28;20478;-69
2022/03/10 01:40:49;;;;;;;3.45;2.50;;;21.20;41.40;;;;;;5004245;28;20141;-69
2022/03/10 01:43:15;;;;;;;4.18;2.70;;;21.20;41.40;;;;;;5004072;28;20026;-68
2022/03/10 01:45:41;;;;;;;3.92;2.13;;;21.20;41.40;;;;;;5003505;28;20636;-67
2022/03/10 01:48:06;;;;;;;3.45;2.40;;;21.20;41.40;;;;;;5005251;28;20085;-68
2022/03/10 01:50:32;;;;;;;3.88;2.30;;;21.20;41.40;;;;;;5004437;28;20052;-68
2022/03/10 01:52:57;;;;;;;3.88;2.00;;;21.20;41.40;;;;;;5002756;28;20033;-67
2022/03/10 01:55:24;;;;;;;3.78;2.55;;;21.20;41.50;;;;;;5004471;28;20038;-67
2022/03/10 01:57:49;;;;;;;3.55;2.35;;;21.20;41.40;;;;;;5003468;28;20025;-67
2022/03/10 02:00:16;;;;;;;3.00;2.00;;;21.10;41.30;;;;;;5005179;28;20092;-67
2022/03/10 02:02:42;;;;;;;3.63;2.00;;;21.10;41.40;;;;;;5002520;28;20044;-69
2022/03/10 02:05:08;;;;;;;2.88;2.03;;;21.10;41.40;;;;;;5005795;28;20030;-64
2022/03/10 02:10:18;;;;;;;3.35;2.17;;;21.10;41.40;;;;;;5003605;28;20032;-69
2022/03/10 02:12:48;;;;;;;3.00;2.08;;;21.10;41.40;;;;;;5000477;28;20029;-68
2022/03/10 02:18:11;;;;;;;3.08;2.15;;;21.10;41.40;;;;;;5006180;28;20049;-67
2022/03/10 02:20:37;;;;;;;3.42;2.22;;;21.10;41.50;;;;;;5007359;28;20030;-67
2022/03/10 02:23:04;;;;;;;3.42;2.15;;;21.00;41.40;;;;;;5004393;28;20061;-67
2022/03/10 02:25:29;;;;;;;3.10;2.10;;;21.10;41.40;;;;;;5003162;28;20033;-67
2022/03/10 02:27:56;;;;;;;3.20;2.00;;;21.00;41.40;;;;;;5003457;28;20573;-68
2022/03/10 02:30:25;;;;;;;3.42;2.03;;;21.00;41.40;;;;;;5004018;28;20156;-69
2022/03/10 02:32:51;;;;;;;3.33;1.98;;;21.00;41.40;;;;;;5003133;28;20744;-65
2022/03/10 02:35:17;;;;;;;3.20;2.00;;;21.00;41.40;;;;;;5004641;28;20124;-67
2022/03/10 02:37:43;;;;;;;3.25;2.15;;;21.00;41.40;;;;;;5003383;28;20030;-64
2022/03/10 02:40:10;;;;;;;3.00;2.17;;;21.00;41.40;;;;;;5004877;28;20030;-64
2022/03/10 02:42:36;;;;;;;2.78;1.90;;;21.00;41.40;;;;;;5001609;28;20022;-67
2022/03/10 02:45:02;;;;;;;2.92;1.80;;;21.00;41.40;;;;;;5004822;28;20031;-67
2022/03/10 02:47:28;;;;;;;3.20;2.10;;;21.00;41.40;;;;;;5004564;28;20698;-67
2022/03/10 02:49:53;;;;;;;3.20;2.00;;;21.00;41.40;;;;;;5004407;28;20022;-69
2022/03/10 02:52:19;;;;;;;2.90;1.90;;;21.00;41.40;;;;;;5006034;28;20057;-67
2022/03/10 02:54:45;;;;;;;3.50;2.10;;;21.00;41.40;;;;;;5002297;28;20152;-64
2022/03/10 02:57:12;;;;;;;2.53;1.92;;;21.00;41.40;;;;;;5002088;28;20048;-69
2022/03/10 02:59:38;;;;;;;2.50;1.73;;;20.90;41.40;;;;;;5004781;28;20596;-67
2022/03/10 03:02:04;;;;;;;3.50;2.03;;;21.00;41.40;;;;;;5004781;28;20042;-69
2022/03/10 03:04:30;;;;;;;2.90;2.00;;;20.90;41.40;;;;;;5004479;28;20026;-64
2022/03/10 03:06:56;;;;;;;2.55;1.70;;;21.00;41.40;;;;;;5004970;28;20599;-67
2022/03/10 03:09:21;;;;;;;3.00;2.08;;;20.90;41.30;;;;;;5002677;28;20191;-65
2022/03/10 03:11:47;;;;;;;3.33;1.92;;;20.90;41.30;;;;;;5002253;28;20060;-68
2022/03/10 03:14:13;;;;;;;3.22;2.00;;;21.00;41.40;;;;;;5005871;28;20144;-65
2022/03/10 03:16:40;;;;;;;3.03;1.90;;;21.00;41.40;;;;;;5002110;28;20033;-69
2022/03/10 03:19:05;;;;;;;2.50;1.77;;;20.90;41.30;;;;;;5010918;28;20132;-67
2022/03/10 03:21:31;;;;;;;3.22;2.05;;;20.90;41.40;;;;;;5004419;28;20156;-66
2022/03/10 03:23:57;;;;;;;2.90;1.92;;;20.90;41.40;;;;;;5003663;28;20454;-68
2022/03/10 03:26:23;;;;;;;3.28;2.00;;;20.90;41.40;;;;;;5000806;28;20038;-67
2022/03/10 03:28:48;;;;;;;2.85;1.90;;;20.90;41.40;;;;;;5001787;28;20057;-68
2022/03/10 03:31:14;;;;;;;2.72;1.67;;;20.90;41.40;;;;;;5001103;28;20422;-67
2022/03/10 03:33:40;;;;;;;2.85;1.80;;;20.90;41.40;;;;;;5003846;28;20415;-69
2022/03/10 03:36:06;;;;;;;2.80;1.83;;;20.90;41.40;;;;;;5002129;28;20026;-67
2022/03/10 03:38:32;;;;;;;3.10;1.90;;;20.90;41.30;;;;;;5000152;28;20107;-69
2022/03/10 03:40:59;;;;;;;2.90;1.83;;;20.90;41.40;;;;;;5002233;28;20731;-67
2022/03/10 03:43:25;;;;;;;2.70;1.88;;;20.90;41.40;;;;;;5006762;28;20030;-69
2022/03/10 03:45:50;;;;;;;3.08;2.15;;;20.90;41.40;;;;;;5007977;28;20037;-69
2022/03/10 03:48:16;;;;;;;3.33;1.88;;;20.90;41.40;;;;;;5006392;28;20026;-67
2022/03/10 03:50:41;;;;;;;2.88;2.00;;;20.90;41.30;;;;;;5007663;28;20026;-64
2022/03/10 03:53:07;;;;;;;3.35;2.00;;;20.90;41.40;;;;;;5006377;28;20046;-65
2022/03/10 03:55:33;;;;;;;3.42;2.10;;;20.90;41.30;;;;;;5006407;28;20025;-65
2022/03/10 03:57:58;;;;;;;2.83;1.92;;;20.90;41.30;;;;;;5007498;28;20040;-69
2022/03/10 04:00:24;;;;;;;2.95;1.65;;;20.90;41.30;;;;;;5006150;28;20367;-69
2022/03/10 04:02:49;;;;;;;2.60;1.70;;;20.90;41.30;;;;;;5007931;28;20038;-67
2022/03/10 04:05:16;;;;;;;2.80;1.80;;;20.80;41.30;;;;;;5007685;28;20026;-67
2022/03/10 04:07:42;;;;;;;3.00;1.70;;;20.80;41.30;;;;;;5008149;28;20645;-67
2022/03/10 04:10:08;;;;;;;2.78;1.80;;;20.80;41.80;;;;;;4997094;28;20037;-67
2022/03/10 04:12:34;;;;;;;2.47;1.58;;;20.80;41.30;;;;;;5001817;28;20062;-67
2022/03/10 04:15:01;;;;;;;3.20;1.60;;;20.80;41.30;;;;;;5007369;28;20192;-64
2022/03/10 04:17:27;;;;;;;2.60;1.60;;;20.80;41.30;;;;;;5005841;28;20091;-68
2022/03/10 04:19:52;;;;;;;2.70;1.75;;;20.80;41.30;;;;;;5007486;28;20060;-64
2022/03/10 04:22:18;;;;;;;2.55;1.70;;;20.80;41.30;;;;;;5006303;28;20354;-67
2022/03/10 04:24:44;;;;;;;2.30;1.60;;;20.80;41.30;;;;;;5002472;28;20029;-67
2022/03/10 04:27:09;;;;;;;3.10;1.90;;;20.80;41.30;;;;;;5019563;28;20025;-68
2022/03/10 04:29:35;;;;;;;3.03;1.80;;;20.80;41.40;;;;;;5005429;28;20033;-67
2022/03/10 04:32:01;;;;;;;2.00;1.35;;;20.80;41.90;;;;;;5006133;28;20042;-68
2022/03/10 04:34:26;;;;;;;3.38;1.80;;;20.80;41.50;;;;;;5004133;28;20157;-67
2022/03/10 04:36:52;;;;;;;2.10;1.58;;;20.80;41.50;;;;;;5007304;28;20038;-64
2022/03/10 04:39:18;;;;;;;2.60;1.50;;;20.70;41.40;;;;;;5002689;28;20029;-69
2022/03/10 04:41:43;;;;;;;2.10;1.45;;;20.70;41.40;;;;;;5004713;28;20037;-69
2022/03/10 04:44:10;;;;;;;2.42;1.48;;;20.80;41.50;;;;;;5005710;28;20034;-67
2022/03/10 04:46:36;;;;;;;2.60;1.50;;;20.70;41.40;;;;;;5006822;28;20080;-67
2022/03/10 04:49:02;;;;;;;2.58;1.60;;;20.70;41.40;;;;;;5007427;28;20026;-69
2022/03/10 04:51:28;;;;;;;2.30;1.60;;;20.70;41.40;;;;;;5006660;28;20117;-67
2022/03/10 04:53:54;;;;;;;2.20;1.50;;;20.70;41.40;;;;;;5005350;28;20176;-67
2022/03/10 04:56:20;;;;;;;2.55;1.60;;;20.70;41.40;;;;;;5005856;28;20398;-68
2022/03/10 04:58:46;;;;;;;2.38;1.38;;;20.70;41.40;;;;;;5003315;28;20042;-67
2022/03/10 05:01:12;;;;;;;2.67;1.60;;;20.70;41.40;;;;;;5003064;28;20038;-67
2022/03/10 05:03:38;;;;;;;2.40;1.58;;;20.70;41.40;;;;;;5005111;28;20036;-67
2022/03/10 05:06:04;;;;;;;2.45;1.55;;;20.70;41.40;;;;;;5006476;28;20686;-66
2022/03/10 05:08:29;;;;;;;2.35;1.48;;;20.70;41.50;;;;;;5004138;28;20018;-66
2022/03/10 05:10:55;;;;;;;2.45;1.63;;;20.70;41.40;;;;;;5003734;28;20122;-68
2022/03/10 05:13:21;;;;;;;2.50;1.50;;;20.70;41.50;;;;;;5003969;28;20036;-64
2022/03/10 05:15:47;;;;;;;2.60;1.50;;;20.70;41.40;;;;;;5005202;28;20100;-69
2022/03/10 05:18:13;;;;;;;2.45;1.55;;;20.70;41.50;;;;;;5004589;28;20073;-67
2022/03/10 05:20:39;;;;;;;2.60;1.48;;;20.70;41.50;;;;;;5006803;28;20030;-69
2022/03/10 05:23:05;;;;;;;2.50;1.40;;;20.70;41.50;;;;;;5004981;28;20045;-67
2022/03/10 05:25:39;;;;;;;2.53;1.63;;;20.70;41.50;;;;;;5004171;28;20394;-67
2022/03/10 05:28:07;;;;;;;3.63;1.40;;;20.70;41.50;;;;;;5006166;28;20026;-67
2022/03/10 05:30:33;;;;;;;2.20;1.42;;;20.70;41.50;;;;;;5004681;28;20473;-68
2022/03/10 05:32:59;;;;;;;2.95;1.50;;;20.70;41.50;;;;;;5006458;28;20055;-64
2022/03/10 05:35:29;;;;;;;2.45;1.60;;;20.70;41.50;;;;;;5005713;28;20030;-67
2022/03/10 05:37:55;;;;;;;1.77;1.30;;;20.70;41.50;;;;;;5006717;28;20033;-68
2022/03/10 05:40:21;;;;;;;2.80;1.55;;;20.70;41.60;;;;;;5003928;28;20037;-67
2022/03/10 05:42:50;;;;;;;2.75;1.70;;;20.70;41.50;;;;;;5003754;28;20049;-69
2022/03/10 05:45:22;;;;;;;2.38;1.50;;;20.60;41.50;;;;;;5001868;28;20030;-67
2022/03/10 05:47:55;;;;;;;2.15;1.25;;;20.70;41.50;;;;;;5003664;28;20026;-67
2022/03/10 05:50:23;;;;;;;2.10;1.50;;;20.70;41.50;;;;;;5007681;28;20505;-64
2022/03/10 05:52:49;;;;;;;2.33;1.40;;;20.70;41.50;;;;;;5001765;28;20030;-69
2022/03/10 05:55:15;;;;;;;2.75;1.38;;;20.70;41.60;;;;;;5003330;28;20760;-62
2022/03/10 05:57:42;;;;;;;2.70;1.60;;;20.70;41.60;;;;;;5003491;28;20038;-67
2022/03/10 06:00:10;;;;;;;2.50;1.67;;;20.60;41.50;;;;;;5005431;28;20100;-69
2022/03/10 06:02:36;;;;;;;2.90;1.50;;;20.60;41.60;;;;;;5003602;28;20046;-69
2022/03/10 06:05:03;;;;;;;3.13;1.60;;;20.60;41.60;;;;;;5004776;28;20395;-65
2022/03/10 06:07:29;;;;;;;2.17;1.40;;;20.60;41.60;;;;;;5000952;28;20510;-67
2022/03/10 06:09:55;;;;;;;3.10;1.75;;;20.60;41.60;;;;;;5001248;28;20363;-66
2022/03/10 06:12:21;;;;;;;2.50;1.40;;;20.60;41.60;;;;;;5000343;28;20022;-67
2022/03/10 06:14:47;;;;;;;2.40;1.42;;;20.60;41.60;;;;;;5004549;28;20061;-69
2022/03/10 06:17:13;;;;;;;2.13;1.25;;;20.60;41.60;;;;;;5010009;28;20176;-65
2022/03/10 06:19:39;;;;;;;2.30;1.30;;;20.60;42.20;;;;;;5003950;28;20033;-65
2022/03/10 06:22:04;;;;;;;2.95;1.58;;;20.60;41.70;;;;;;5000084;28;20087;-69
2022/03/10 06:24:30;;;;;;;2.03;1.27;;;20.60;41.70;;;;;;5005111;28;20075;-68
2022/03/10 06:26:55;;;;;;;2.67;1.35;;;20.60;41.70;;;;;;5002599;28;20029;-67
2022/03/10 06:29:21;;;;;;;2.83;1.50;;;20.60;42.30;;;;;;5002343;28;20041;-69
2022/03/10 06:31:47;;;;;;;2.83;1.38;;;20.60;41.80;;;;;;5001920;28;20068;-68
2022/03/10 06:34:13;;;;;;;1.85;1.10;;;20.60;41.90;;;;;;5004225;28;20038;-67
2022/03/10 06:36:39;;;;;;;3.25;1.33;;;20.60;41.90;;;;;;5016152;28;20030;-69
2022/03/10 06:39:06;;;;;;;2.10;1.30;;;20.60;41.90;;;;;;5003921;28;20543;-67
2022/03/10 06:41:32;;;;;;;2.33;1.30;;;20.60;42.00;;;;;;5000773;28;20361;-67
2022/03/10 06:43:57;;;;;;;1.90;1.20;;;20.60;42.00;;;;;;5002062;28;20048;-69
2022/03/10 06:46:24;;;;;;;2.10;1.13;;;20.60;42.00;;;;;;5005453;28;20026;-68
2022/03/10 06:48:49;;;;;;;2.38;1.25;;;20.60;42.00;;;;;;5003537;28;20546;-65
2022/03/10 06:51:15;;;;;;;2.15;1.20;;;20.60;42.00;;;;;;5002181;28;20041;-70
2022/03/10 06:53:41;;;;;;;1.95;1.30;;;20.60;42.00;;;;;;4992660;28;20364;-67
2022/03/10 06:56:07;;;;;;;2.20;1.23;;;20.60;42.00;;;;;;4997239;28;20045;-67
2022/03/10 06:58:32;;;;;;;2.15;1.27;;;20.60;42.10;;;;;;5006432;28;20105;-67
2022/03/10 07:00:59;;;;;;;2.10;1.15;;;20.60;42.00;;;;;;5005063;28;20053;-67
2022/03/10 07:03:24;;;;;;;1.48;1.05;;;20.60;42.10;;;;;;5003076;28;20164;-69
2022/03/10 07:05:50;;;;;;;3.22;1.40;;;20.60;42.10;;;;;;5004160;28;20553;-64
2022/03/10 07:08:16;;;;;;;1.70;1.08;;;20.60;42.10;;;;;;4997566;28;20112;-67
2022/03/10 07:10:41;;;;;;;1.98;1.27;;;20.60;42.10;;;;;;5005500;28;20030;-67
2022/03/10 07:13:08;;;;;;;2.25;1.40;;;20.60;42.10;;;;;;4996148;28;20022;-65
2022/03/10 07:15:34;;;;;;;1.80;1.10;;;20.60;42.10;;;;;;5006013;28;20645;-70
2022/03/10 07:18:00;;;;;;;2.05;1.23;;;20.60;42.10;;;;;;5005259;28;20112;-70
2022/03/10 07:20:25;;;;;;;2.75;1.30;;;20.60;42.10;;;;;;5005806;28;20220;-67
2022/03/10 07:22:51;;;;;;;1.88;1.20;;;20.60;42.20;;;;;;5004404;28;20033;-68
2022/03/10 07:25:17;;;;;;;1.90;1.20;;;20.60;42.10;;;;;;5004858;28;20025;-67
2022/03/10 07:27:42;;;;;;;2.03;1.33;;;20.60;42.10;;;;;;5002581;28;20058;-66
2022/03/10 07:30:08;;;;;;;4.07;1.50;;;20.60;42.10;;;;;;5004357;28;20041;-67
2022/03/10 07:32:34;;;;;;;1.85;1.13;;;20.60;42.10;;;;;;5004603;28;20113;-70
2022/03/10 07:35:00;;;;;;;1.88;1.02;;;20.50;42.00;;;;;;5005437;28;20037;-70
2022/03/10 07:37:26;;;;;;;2.53;1.20;;;20.60;42.10;;;;;;5005916;28;20035;-67
2022/03/10 07:39:52;;;;;;;1.67;1.20;;;20.60;42.10;;;;;;5004039;28;20044;-67
2022/03/10 07:42:18;;;;;;;2.55;1.30;;;20.60;42.10;;;;;;5001175;28;20875;-67
2022/03/10 07:44:44;;;;;;;1.98;1.20;;;20.60;42.10;;;;;;5004519;28;20038;-67
2022/03/10 07:47:10;;;;;;;1.80;1.00;;;20.60;42.10;;;;;;5005994;28;20459;-67
2022/03/10 07:49:35;;;;;;;2.38;1.20;;;20.60;42.10;;;;;;4996808;28;20037;-65
2022/03/10 07:52:02;;;;;;;2.33;1.50;;;20.60;42.10;;;;;;5003492;28;20079;-67
2022/03/10 07:54:27;;;;;;;2.20;1.30;;;20.60;42.10;;;;;;5010166;28;20042;-70
2022/03/10 07:56:53;;;;;;;2.40;1.30;;;20.50;42.10;;;;;;5004625;28;20060;-64
2022/03/10 07:59:19;;;;;;;2.50;1.15;;;20.60;42.10;;;;;;5003979;28;20034;-67
2022/03/10 08:01:45;;;;;;;1.80;1.23;;;20.60;42.10;;;;;;5004879;28;20050;-67
2022/03/10 08:04:11;;;;;;;2.00;1.20;;;20.60;42.10;;;;;;5003394;28;20084;-67
2022/03/10 08:06:36;;;;;;;2.08;1.27;;;20.60;42.10;;;;;;5005340;28;20030;-68
2022/03/10 08:09:02;;;;;;;2.13;1.27;;;20.60;42.10;;;;;;5003342;28;20041;-70
2022/03/10 08:11:28;;;;;;;1.60;1.10;;;20.60;42.10;;;;;;5004197;28;20035;-65
2022/03/10 08:13:54;;;;;;;2.03;1.10;;;20.60;42.10;;;;;;5004132;28;20026;-67
2022/03/10 08:16:20;;;;;;;2.28;1.35;;;20.60;42.10;;;;;;5005628;28;20038;-68
2022/03/10 08:18:51;;;;;;;3.42;1.60;;;20.60;42.10;;;;;;5003971;28;20152;-65
2022/03/10 08:21:17;;;;;;;1.88;1.20;;;20.60;42.10;;;;;;5006237;28;20123;-67
2022/03/10 08:23:42;;;;;;;1.77;1.20;;;20.60;42.10;;;;;;5002250;28;20034;-67
2022/03/10 08:26:08;;;;;;;2.10;1.38;;;20.60;42.10;;;;;;5002856;28;20045;-69
2022/03/10 08:28:36;;;;;;;1.85;1.20;;;20.60;42.60;;;;;;5006990;28;20100;-70
2022/03/10 08:31:04;;;;;;;1.88;1.20;;;20.60;42.10;;;;;;5022646;28;20034;-71
2022/03/10 08:33:30;;;;;;;2.17;1.30;;;20.60;42.10;;;;;;5007870;28;20124;-67
2022/03/10 08:35:56;;;;;;;1.83;1.20;;;20.60;42.10;;;;;;5009264;28;20125;-68
2022/03/10 08:38:21;;;;;;;2.17;1.30;;;20.60;42.10;;;;;;5008393;28;20129;-65
2022/03/10 08:40:47;;;;;;;2.63;1.30;;;20.60;42.10;;;;;;5008735;28;20068;-70
2022/03/10 08:43:13;;;;;;;1.90;1.20;;;20.60;42.10;;;;;;5006551;28;20037;-69
2022/03/10 08:45:40;;;;;;;2.35;1.20;;;20.60;42.10;;;;;;5008577;28;20474;-66
2022/03/10 08:48:06;;;;;;;2.20;1.30;;;20.60;42.10;;;;;;5008795;28;20570;-67
2022/03/10 08:50:31;;;;;;;2.15;1.30;;;20.60;42.10;;;;;;5008629;28;20090;-69
2022/03/10 08:52:57;;;;;;;2.05;1.20;;;20.60;42.10;;;;;;5007469;28;20037;-68
2022/03/10 08:55:23;;;;;;;2.58;1.25;;;20.60;42.10;;;;;;5007488;28;20527;-67
2022/03/10 08:57:49;;;;;;;2.00;1.17;;;20.60;42.10;;;;;;5007551;28;20034;-65
2022/03/10 09:00:18;;;;;;;2.05;1.17;;;20.60;42.10;;;;;;5007622;28;20057;-68
2022/03/10 09:02:44;;;;;;;2.20;1.13;;;20.60;42.10;;;;;;5008277;28;20029;-67
2022/03/10 09:05:10;;;;;;;2.15;1.20;;;20.60;42.10;;;;;;5007857;28;20087;-71
2022/03/10 09:07:36;;;;;;;2.58;1.33;;;20.60;42.10;;;;;;5007871;28;20118;-70
2022/03/10 09:10:05;;;;;;;2.00;1.20;;;20.60;42.20;;;;;;5006109;28;20433;-65
2022/03/10 09:12:31;;;;;;;2.30;1.23;;;20.60;42.10;;;;;;5006874;28;20061;-70
2022/03/10 09:14:57;;;;;;;2.17;1.23;;;20.60;42.10;;;;;;5005648;28;20064;-71
2022/03/10 09:17:22;;;;;;;2.28;1.30;;;20.60;42.10;;;;;;5007006;28;20113;-67
2022/03/10 09:19:49;;;;;;;2.03;1.23;;;20.60;42.10;;;;;;5022093;28;20122;-67
2022/03/10 09:22:15;;;;;;;2.13;1.20;;;20.60;42.10;;;;;;5007294;28;20026;-68
2022/03/10 09:24:42;;;;;;;2.10;1.30;;;20.60;42.10;;;;;;5005279;28;20109;-67
2022/03/10 09:27:09;;;;;;;2.00;1.20;;;20.60;42.10;;;;;;5005309;28;20030;-67
2022/03/10 09:29:35;;;;;;;2.17;1.42;;;20.60;42.10;;;;;;5005192;28;20370;-67
2022/03/10 09:32:00;;;;;;;2.67;1.42;;;20.60;42.10;;;;;;5005866;28;20037;-65
2022/03/10 09:34:26;;;;;;;2.03;1.20;;;20.60;42.20;;;;;;5005275;28;20082;-70
2022/03/10 09:36:52;;;;;;;2.00;1.20;;;20.60;42.10;;;;;;5005677;28;20021;-71
2022/03/10 09:39:18;;;;;;;1.85;1.20;;;20.60;42.10;;;;;;5000990;28;20804;-67
2022/03/10 09:41:44;;;;;;;1.55;1.23;;;20.60;42.20;;;;;;5005233;28;20740;-67
2022/03/10 09:44:17;;;;;;;2.30;1.30;;;20.60;42.10;;;;;;5005205;28;20026;-68
2022/03/10 09:46:44;;;;;;;2.22;1.33;;;20.60;42.10;;;;;;5006124;28;20030;-67
2022/03/10 09:49:10;;;;;;;1.75;1.10;;;20.60;42.10;;;;;;5006109;28;20041;-70
2022/03/10 09:51:37;;;;;;;2.08;1.20;;;20.60;42.10;;;;;;5006199;28;20033;-67
2022/03/10 09:54:02;;;;;;;1.90;1.10;;;20.60;42.10;;;;;;5004592;28;20390;-67
2022/03/10 09:56:28;;;;;;;2.60;1.30;;;20.60;42.10;;;;;;5004804;28;20061;-67
2022/03/10 09:58:54;;;;;;;2.08;1.15;;;20.60;42.10;;;;;;5006456;28;20041;-71
2022/03/10 10:01:19;;;;;;;1.73;1.10;;;20.60;42.10;;;;;;5004193;28;20494;-70
2022/03/10 10:03:45;;;;;;;2.15;1.20;;;20.60;42.10;;;;;;5006678;28;20041;-67
2022/03/10 10:06:10;;;;;;;2.40;1.40;;;20.60;42.10;;;;;;5005400;28;20118;-71
2022/03/10 10:08:38;;;;;;;2.08;1.10;;;20.60;42.00;;;;;;5004493;28;20109;-68
2022/03/10 10:11:05;;;;;;;1.25;0.88;;;20.60;42.10;;;;;;5003678;28;20084;-70
2022/03/10 10:13:34;;;;;;;2.45;1.10;;;20.60;42.00;;;;;;5005344;28;20029;-71
2022/03/10 10:16:02;;;;;;;2.37;1.20;;;20.60;42.10;;;;;;5006368;28;20056;-68
2022/03/10 10:18:30;;;;;;;2.63;1.30;;;20.60;42.00;;;;;;5007207;28;20373;-68
2022/03/10 10:20:57;;;;;;;2.15;1.13;;;20.60;42.10;;;;;;5021689;28;20139;-66
2022/03/10 10:23:22;;;;;;;1.60;1.02;;;20.60;42.00;;;;;;5004689;28;20438;-67
2022/03/10 10:25:53;;;;;;;2.03;1.08;;;20.60;42.00;;;;;;5004637;28;20152;-68
2022/03/10 10:28:27;;;;;;;1.98;1.20;;;20.60;42.00;;;;;;5005399;28;20022;-68
2022/03/10 10:31:01;;;;;;;2.00;1.30;;;20.60;42.00;;;;;;5005745;28;20042;-71
2022/03/10 10:33:28;;;;;;;2.53;1.30;;;20.60;42.00;;;;;;5004391;28;20022;-65
2022/03/10 10:36:15;;;;;;;1.77;1.17;;;20.60;42.00;;;;;;5006516;28;20121;-67
2022/03/10 10:38:43;;;;;;;1.75;1.20;;;20.60;41.90;;;;;;5003333;28;20045;-67
2022/03/10 10:41:29;;;;;;;1.70;1.10;;;20.60;41.90;;;;;;5000566;28;21894;-68
2022/03/10 10:44:09;;;;;;;1.40;1.00;;;20.60;41.90;;;;;;5000368;28;20041;-66
2022/03/10 10:46:43;;;;;;;1.60;1.10;;;20.60;41.90;;;;;;5001715;28;20037;-68
2022/03/10 10:49:17;;;;;;;2.25;1.27;;;20.60;41.90;;;;;;4997604;28;20034;-68
2022/03/10 10:51:45;;;;;;;1.83;1.00;;;20.60;41.80;;;;;;5003147;28;20049;-67
2022/03/10 10:54:24;;;;;;;1.75;1.10;;;20.60;41.80;;;;;;4997280;28;20052;-65
2022/03/10 10:56:51;;;;;;;1.45;1.10;;;20.70;41.90;;;;;;4996110;28;20753;-70
2022/03/10 10:59:26;;;;;;;1.63;1.10;;;20.60;41.80;;;;;;5005221;28;20092;-67
2022/03/10 11:02:04;;;;;;;1.95;1.20;;;20.60;41.80;;;;;;5005461;28;20038;-68
2022/03/10 11:04:31;;;;;;;1.45;1.00;;;20.60;41.80;;;;;;5001335;28;20037;-68
2022/03/10 11:06:57;;;;;;;2.17;1.15;;;20.60;41.70;;;;;;5004445;28;20049;-69
2022/03/10 11:09:24;;;;;;;1.65;1.00;;;20.60;42.20;;;;;;5003974;28;20028;-70
2022/03/10 11:11:51;;;;;;;2.55;1.10;;;20.60;41.70;;;;;;5004191;28;20026;-70
2022/03/10 11:14:18;;;;;;;1.77;1.17;;;20.60;41.60;;;;;;5002997;28;20064;-67
2022/03/10 11:16:45;;;;;;;2.30;1.40;;;20.60;41.50;;;;;;5004254;28;20371;-67
2022/03/10 11:19:13;;;;;;;1.80;1.10;;;20.60;41.50;;;;;;5004904;28;20061;-68
2022/03/10 11:21:55;;;;;;;1.80;1.20;;;20.60;41.40;;;;;;5002178;28;20037;-69
2022/03/10 11:24:30;;;;;;;1.48;1.00;;;20.60;41.30;;;;;;5002757;28;20439;-68
2022/03/10 11:27:07;;;;;;;1.70;1.10;;;20.60;41.30;;;;;;5000437;28;20456;-68
2022/03/10 11:29:37;;;;;;;1.80;1.20;;;20.60;41.20;;;;;;5004187;28;20034;-64
2022/03/10 11:32:06;;;;;;;;;;;20.60;41.10;;;;;;5001137;28;20115;-68
2022/03/10 11:34:48;;;;;;;1.50;1.10;;;20.60;41.00;;;;;;5002548;28;19913;-65
2022/03/10 11:37:36;;;;;;;1.80;1.10;;;20.60;41.00;;;;;;5003931;28;20520;-66
2022/03/10 11:40:12;;;;;;;1.58;1.05;;;20.60;40.90;;;;;;5002049;28;20466;-66
2022/03/10 11:42:38;;;;;;;1.83;1.17;;;20.60;40.90;;;;;;5000034;28;20045;-66
2022/03/10 11:45:10;;;;;;;1.90;1.08;;;20.60;40.90;;;;;;5002251;28;20413;-67
2022/03/10 11:47:37;;;;;;;2.22;1.10;;;20.60;40.90;;;;;;5003782;28;20033;-67
2022/03/10 11:50:22;;;;;;;1.60;1.20;;;20.70;41.00;;;;;;5002205;28;20132;-70
2022/03/10 11:53:05;;;;;;;2.65;1.30;;;20.60;40.90;;;;;;5001262;28;20121;-69
2022/03/10 11:55:42;;;;;;;1.80;1.30;;;20.60;40.90;;;;;;5001976;28;20037;-68
2022/03/10 11:58:11;;;;;;;2.00;1.10;;;20.60;40.90;;;;;;5002416;28;20113;-67
2022/03/10 12:00:52;;;;;;;2.85;1.38;;;20.60;40.90;;;;;;5002076;28;20490;-68
2022/03/10 12:03:38;;;;;;;2.25;1.30;;;20.60;40.90;;;;;;5005738;28;20044;-70
2022/03/10 12:06:12;;;;;;;1.95;1.25;;;20.60;40.80;;;;;;5006669;28;20045;-63
2022/03/10 12:08:40;;;;;;;2.60;1.08;;;20.60;40.80;;;;;;5005923;28;20029;-64
2022/03/10 12:11:13;;;;;;;1.40;1.00;;;20.60;40.90;;;;;;5021059;28;20551;-68
2022/03/10 12:13:44;;;;;;;1.80;1.20;;;20.60;40.90;;;;;;5006301;28;20045;-68
2022/03/10 12:16:30;;;;;;;2.00;1.15;;;20.60;40.90;;;;;;5007565;28;20381;-65
2022/03/10 12:18:56;;;;;;;2.15;1.10;;;20.60;40.80;;;;;;4996357;28;20050;-67
2022/03/10 12:21:27;;;;;;;2.78;1.27;;;20.60;40.90;;;;;;5006540;28;20046;-70
2022/03/10 12:24:01;;;;;;;2.35;1.33;;;20.60;40.80;;;;;;5003557;28;20034;-70
2022/03/10 12:26:34;;;;;;;1.98;1.17;;;20.60;40.80;;;;;;5004662;28;20022;-66
2022/03/10 12:29:22;;;;;;;1.88;1.10;;;20.60;40.80;;;;;;5006964;28;20053;-66
2022/03/10 12:31:54;;;;;;;2.50;1.30;;;20.60;40.80;;;;;;5007318;28;20041;-67
2022/03/10 12:34:25;;;;;;;1.48;1.13;;;20.60;40.90;;;;;;5007901;28;20157;-65
2022/03/10 12:36:52;;;;;;;2.92;1.20;;;20.70;40.90;;;;;;5006677;28;20026;-68
2022/03/10 12:39:25;;;;;;;1.33;0.90;;;20.60;40.80;;;;;;5004343;28;20064;-64
2022/03/10 12:42:01;;;;;;;2.35;1.30;;;20.60;40.80;;;;;;5000642;28;20108;-67
2022/03/10 12:44:28;;;;;;;1.98;1.15;;;20.60;40.90;;;;;;5003519;28;20034;-68
2022/03/10 12:46:54;;;;;;;2.03;1.10;;;20.60;40.80;;;;;;5003916;28;20061;-65
2022/03/10 12:49:37;;;;;;;2.15;1.15;;;20.60;40.80;;;;;;5004232;28;20034;-68
2022/03/10 12:52:17;;;;;;;2.33;1.10;;;20.60;40.80;;;;;;5006047;28;20022;-67
2022/03/10 12:54:45;;;;;;;2.10;1.10;;;20.60;40.80;;;;;;5003003;28;20030;-64